Time;durP1;ratioP1;P1;durP2;ratioP2;P2;SDS_P1;SDS_P2;PMS_P1;PMS_P2;Temp;Humidity;BMP_temperature;BMP_pressure;BME280_temperature;BME280_humidity;BME280_pressure;Samples;Min_cycle;Max_cycle;Signal;HPM_P1;HPM_P2
2023/07/05 00:02:16;;;;;;;;;;;;;;;32.92;27.43;98092.94;5078062;28;19920;-87
2023/07/05 00:04:44;;;;;;;;;;;;;;;32.97;27.27;98097.13;5082333;28;20290;-87
2023/07/05 00:07:11;;;;;;;;;;;;;;;33.03;27.32;98098.81;5092300;28;19927;-87
2023/07/05 00:09:39;;;;;;;;;;;;;;;33.16;26.68;98093.56;5070472;28;19966;-86
2023/07/05 00:12:05;;;;;;;;;;;;;;;33.20;27.29;98094.16;5094518;28;19989;-87
2023/07/05 00:14:35;;;;;;;;;;;;;;;33.09;26.93;98096.06;5095864;28;19916;-87
2023/07/05 00:17:01;;;;;;;;;;;;;;;33.06;27.26;98080.75;5095436;28;19916;-88
2023/07/05 00:19:27;;;;;;;;;;;;;;;33.16;27.04;98089.94;5082138;28;19965;-88
2023/07/05 00:21:53;;;;;;;;;;;;;;;33.08;26.77;98089.56;5094256;28;19970;-87
2023/07/05 00:24:19;;;;;;;;;;;;;;;32.94;26.87;98086.72;5079018;28;19920;-87
2023/07/05 00:26:45;;;;;;;;;;;;;;;33.12;26.84;98090.13;5094098;28;19920;-87
2023/07/05 00:29:11;;;;;;;;;;;;;;;33.16;26.87;98092.78;5094833;28;19928;-87
2023/07/05 00:31:38;;;;;;;;;;;;;;;33.16;26.76;98092.78;5071089;28;19983;-87
2023/07/05 00:34:04;;;;;;;;;;;;;;;32.84;27.06;98097.44;5088541;28;19942;-87
2023/07/05 00:36:30;;;;;;;;;;;;;;;32.67;27.57;98097.19;5077008;28;19921;-90
2023/07/05 00:38:56;;;;;;;;;;;;;;;32.55;27.90;98094.66;5094484;28;19924;-87
2023/07/05 00:41:22;;;;;;;;;;;;;;;32.73;27.42;98094.44;5076462;28;20303;-87
2023/07/05 00:43:48;;;;;;;;;;;;;;;33.03;26.92;98090.28;5073722;28;20015;-87
2023/07/05 00:46:18;;;;;;;;;;;;;;;33.26;26.36;98091.34;5094807;28;19924;-88
2023/07/05 00:48:47;;;;;;;;;;;;;;;33.43;26.08;98092.38;5095208;28;19920;-88
2023/07/05 00:51:22;;;;;;;;;;;;;;;33.06;26.31;98086.44;5094862;28;19920;-88
2023/07/05 00:53:48;;;;;;;;;;;;;;;31.99;28.45;98087.19;5085630;28;20280;-87
2023/07/05 00:56:21;;;;;;;;;;;;;;;32.19;27.71;98092.19;5075327;28;19943;-87
2023/07/05 00:58:48;;;;;;;;;;;;;;;32.54;27.36;98098.78;5088728;28;20318;-87
2023/07/05 01:01:14;;;;;;;;;;;;;;;32.38;27.60;98091.50;5088160;28;19928;-88
2023/07/05 01:03:42;;;;;;;;;;;;;;;32.38;27.55;98088.66;5066832;28;20273;-87
2023/07/05 01:06:12;;;;;;;;;;;;;;;32.48;27.85;98095.03;5077719;28;20394;-87
2023/07/05 01:08:38;;;;;;;;;;;;;;;32.57;27.19;98087.22;5083613;28;19920;-88
2023/07/05 01:11:16;;;;;;;;;;;;;;;32.54;27.03;98087.41;5082485;28;19940;-87
2023/07/05 01:13:46;;;;;;;;;;;;;;;32.34;27.70;98090.94;5079218;28;19959;-87
2023/07/05 01:16:12;;;;;;;;;;;;;;;32.35;27.79;98080.34;5081936;28;19920;-88
2023/07/05 01:18:45;;;;;;;;;;;;;;;32.29;27.60;98085.13;5079092;28;20328;-87
2023/07/05 01:21:19;;;;;;;;;;;;;;;32.26;27.98;98075.53;5083228;28;19960;-88
2023/07/05 01:24:22;;;;;;;;;;;;;;;32.30;27.42;98069.66;5087035;28;19930;-87
2023/07/05 01:26:58;;;;;;;;;;;;;;;32.28;27.42;98072.97;4991539;28;20374;-87
2023/07/05 01:29:33;;;;;;;;;;;;;;;32.59;27.09;98078.19;5062104;28;20007;-88
2023/07/05 01:32:05;;;;;;;;;;;;;;;32.58;27.40;98076.63;5105060;28;19916;-87
2023/07/05 01:34:37;;;;;;;;;;;;;;;32.46;27.73;98072.78;5093601;28;19931;-88
2023/07/05 01:37:04;;;;;;;;;;;;;;;32.59;27.40;98072.50;5094353;28;19920;-89
2023/07/05 01:39:31;;;;;;;;;;;;;;;32.19;27.88;98072.28;5094895;28;19916;-88
2023/07/05 01:41:57;;;;;;;;;;;;;;;32.15;27.52;98066.81;5069930;28;20001;-88
2023/07/05 01:44:23;;;;;;;;;;;;;;;32.04;27.47;98075.16;5084334;28;19920;-88
2023/07/05 01:46:49;;;;;;;;;;;;;;;32.11;27.76;98076.81;5091872;28;20322;-87
2023/07/05 01:49:18;;;;;;;;;;;;;;;32.09;27.98;98074.47;5092997;28;19973;-88
2023/07/05 01:51:50;;;;;;;;;;;;;;;31.95;28.08;98067.47;5070367;28;19924;-88
2023/07/05 01:54:16;;;;;;;;;;;;;;;32.01;27.80;98062.72;5093574;28;19920;-88
2023/07/05 01:56:48;;;;;;;;;;;;;;;31.96;27.87;98068.25;5090659;28;20418;-87
2023/07/05 01:59:15;;;;;;;;;;;;;;;32.31;27.67;98068.38;5088515;28;19943;-87
2023/07/05 02:01:42;;;;;;;;;;;;;;;32.28;27.29;98070.13;5093599;28;19955;-87
2023/07/05 02:04:09;;;;;;;;;;;;;;;32.13;27.49;98072.22;5093647;28;19984;-88
2023/07/05 02:06:37;;;;;;;;;;;;;;;32.14;27.49;98073.78;5092888;28;20282;-88
2023/07/05 02:09:03;;;;;;;;;;;;;;;31.93;27.54;98074.91;5087500;28;19925;-88
2023/07/05 02:11:29;;;;;;;;;;;;;;;31.87;28.20;98066.28;5073422;28;20011;-88
2023/07/05 02:13:56;;;;;;;;;;;;;;;32.00;28.18;98071.69;5061933;28;19920;-88
2023/07/05 02:16:22;;;;;;;;;;;;;;;31.54;28.55;98068.47;5090067;28;20002;-88
2023/07/05 02:18:48;;;;;;;;;;;;;;;31.79;28.26;98076.44;5092078;28;19993;-88
2023/07/05 02:21:14;;;;;;;;;;;;;;;32.04;27.82;98075.16;5075121;28;19924;-88
2023/07/05 02:23:40;;;;;;;;;;;;;;;32.31;27.53;98077.69;5077637;28;19927;-88
2023/07/05 02:26:07;;;;;;;;;;;;;;;32.11;27.59;98082.50;5093381;28;19916;-88
2023/07/05 02:28:34;;;;;;;;;;;;;;;31.76;28.15;98073.81;5093516;28;19916;-88
2023/07/05 02:31:06;;;;;;;;;;;;;;;31.50;28.73;98073.56;5093550;28;19977;-88
2023/07/05 02:33:34;;;;;;;;;;;;;;;31.77;28.32;98076.16;5078525;28;19955;-88
2023/07/05 02:36:06;;;;;;;;;;;;;;;31.93;27.79;98075.69;5093238;28;19916;-88
2023/07/05 02:38:32;;;;;;;;;;;;;;;32.12;27.90;98079.16;5078124;28;19960;-88
2023/07/05 02:40:58;;;;;;;;;;;;;;;31.92;27.99;98079.03;5091706;28;19962;-88
2023/07/05 02:43:24;;;;;;;;;;;;;;;32.03;28.20;98074.38;5089216;28;19924;-87
2023/07/05 02:45:50;;;;;;;;;;;;;;;32.14;27.32;98075.84;5097547;28;19920;-87
2023/07/05 02:48:16;;;;;;;;;;;;;;;31.91;28.25;98074.59;5097104;28;19970;-88
2023/07/05 02:50:42;;;;;;;;;;;;;;;31.57;28.74;98072.41;5095794;28;19920;-87
2023/07/05 02:53:08;;;;;;;;;;;;;;;31.66;28.63;98072.31;5094285;28;19920;-88
2023/07/05 02:55:34;;;;;;;;;;;;;;;32.11;27.93;98073.97;5096811;28;20268;-87
2023/07/05 02:58:00;;;;;;;;;;;;;;;32.32;27.30;98073.59;5108451;28;20395;-87
2023/07/05 03:00:29;;;;;;;;;;;;;;;32.30;27.71;98070.44;5092971;28;19920;-88
2023/07/05 03:02:56;;;;;;;;;;;;;;;32.31;27.93;98072.00;5085145;28;19924;-88
2023/07/05 03:05:22;;;;;;;;;;;;;;;32.45;27.47;98073.28;5091512;28;19920;-88
2023/07/05 03:07:49;;;;;;;;;;;;;;;32.56;26.75;98071.41;5086584;28;19944;-89
2023/07/05 03:10:15;;;;;;;;;;;;;;;32.60;26.99;98083.38;5075500;28;20414;-88
2023/07/05 03:12:41;;;;;;;;;;;;;;;32.46;27.27;98083.38;5090889;28;19931;-88
2023/07/05 03:15:07;;;;;;;;;;;;;;;32.17;27.38;98080.53;5080955;28;19921;-87
2023/07/05 03:17:33;;;;;;;;;;;;;;;32.29;27.17;98082.31;5084979;28;19943;-88
2023/07/05 03:19:59;;;;;;;;;;;;;;;32.21;27.48;98083.97;5096759;28;20053;-88
2023/07/05 03:22:26;;;;;;;;;;;;;;;31.94;28.54;98074.44;5071753;28;20358;-87
2023/07/05 03:24:52;;;;;;;;;;;;;;;32.05;28.54;98068.97;5093758;28;20394;-87
2023/07/05 03:27:19;;;;;;;;;;;;;;;32.27;28.00;98071.44;5096886;28;20053;-87
2023/07/05 03:29:45;;;;;;;;;;;;;;;32.58;27.97;98079.47;5096618;28;19935;-88
2023/07/05 03:32:11;;;;;;;;;;;;;;;32.59;27.88;98081.03;5096245;28;20015;-87
2023/07/05 03:34:37;;;;;;;;;;;;;;;32.24;27.81;98085.81;5089804;28;19966;-88
2023/07/05 03:37:03;;;;;;;;;;;;;;;32.13;28.92;98069.38;5090666;28;19927;-88
2023/07/05 03:39:29;;;;;;;;;;;;;;;32.65;28.68;98076.22;5099476;28;19945;-88
2023/07/05 03:41:55;;;;;;;;;;;;;;;33.25;28.21;98073.53;5095782;28;19928;-88
2023/07/05 03:44:22;;;;;;;;;;;;;;;33.27;27.52;98082.34;5094636;28;20415;-85
2023/07/05 03:46:49;;;;;;;;;;;;;;;33.72;27.36;98078.00;5091334;28;19924;-88
2023/07/05 03:49:15;;;;;;;;;;;;;;;34.17;27.49;98072.81;5095347;28;19920;-88
2023/07/05 03:51:41;;;;;;;;;;;;;;;34.46;26.55;98069.69;5102420;28;19915;-88
2023/07/05 03:54:08;;;;;;;;;;;;;;;34.84;26.73;98077.81;5098525;28;19927;-89
2023/07/05 03:56:34;;;;;;;;;;;;;;;35.01;26.74;98075.81;5096827;28;19924;-89
2023/07/05 03:59:01;;;;;;;;;;;;;;;35.39;27.02;98063.88;5095226;28;19974;-89
2023/07/05 04:01:28;;;;;;;;;;;;;;;35.54;26.33;98065.78;5091021;28;19920;-88
2023/07/05 04:03:55;;;;;;;;;;;;;;;35.37;25.66;98068.53;5073038;28;19920;-89
2023/07/05 04:06:22;;;;;;;;;;;;;;;35.27;26.50;98070.81;5077901;28;20336;-89
2023/07/05 04:08:48;;;;;;;;;;;;;;;35.31;26.56;98076.31;5073601;28;20054;-89
2023/07/05 04:11:14;;;;;;;;;;;;;;;35.21;26.37;98072.09;5070822;28;19928;-88
2023/07/05 04:13:40;;;;;;;;;;;;;;;35.15;26.25;98077.00;5090746;28;20402;-88
2023/07/05 04:16:10;;;;;;;;;;;;;;;35.21;25.74;98078.59;5086661;28;20070;-89
2023/07/05 04:18:36;;;;;;;;;;;;;;;35.33;26.26;98076.56;5078419;28;19916;-89
2023/07/05 04:21:03;;;;;;;;;;;;;;;35.52;26.50;98071.22;5075460;28;19924;-90
2023/07/05 04:23:29;;;;;;;;;;;;;;;35.72;26.55;98077.53;5075000;28;19916;-88
2023/07/05 04:26:02;;;;;;;;;;;;;;;35.92;25.27;98079.41;5079130;28;21535;-91
2023/07/05 04:28:29;;;;;;;;;;;;;;;35.98;24.88;98080.22;5078343;28;19927;-90
2023/07/05 04:30:55;;;;;;;;;;;;;;;35.99;25.78;98082.56;5080162;28;20410;-90
2023/07/05 04:33:21;;;;;;;;;;;;;;;36.10;26.46;98073.25;5084075;28;19994;-92
2023/07/05 04:35:48;;;;;;;;;;;;;;;36.31;25.57;98074.56;5073511;28;19928;-92
2023/07/05 04:38:14;;;;;;;;;;;;;;;36.19;24.81;98075.06;5086118;28;19967;-93
2023/07/05 04:40:41;;;;;;;;;;;;;;;36.22;25.66;98071.19;5070900;28;19921;-90
2023/07/05 04:43:07;;;;;;;;;;;;;;;36.18;24.78;98076.34;5080748;28;19924;-89
2023/07/05 04:45:33;;;;;;;;;;;;;;;36.24;24.70;98083.66;5083387;28;19920;-92
2023/07/05 04:47:59;;;;;;;;;;;;;;;36.22;25.27;98076.91;5079995;28;19950;-91
2023/07/05 04:50:26;;;;;;;;;;;;;;;36.24;24.93;98074.31;5088711;28;19926;-90
2023/07/05 04:52:52;;;;;;;;;;;;;;;36.34;24.59;98072.75;5072922;28;19927;-90
2023/07/05 04:55:18;;;;;;;;;;;;;;;36.20;24.84;98074.53;5081418;28;19965;-92
2023/07/05 04:57:44;;;;;;;;;;;;;;;36.20;25.10;98073.78;5082241;28;20070;-88
2023/07/05 05:00:11;;;;;;;;;;;;;;;36.30;25.80;98084.44;5080202;28;19917;-89
2023/07/05 05:02:37;;;;;;;;;;;;;;;36.69;24.21;98079.53;5080043;28;20058;-88
2023/07/05 05:05:04;;;;;;;;;;;;;;;36.68;24.22;98083.72;5078282;28;19963;-88
2023/07/05 05:07:30;;;;;;;;;;;;;;;36.02;25.53;98081.53;5112295;28;19920;-89
2023/07/05 05:09:57;;;;;;;;;;;;;;;35.23;26.30;98081.72;5112623;28;19926;-89
2023/07/05 05:12:23;;;;;;;;;;;;;;;35.48;26.31;98085.72;5111866;28;19924;-88
2023/07/05 05:14:49;;;;;;;;;;;;;;;35.97;25.74;98088.03;5089580;28;19920;-88
2023/07/05 05:17:15;;;;;;;;;;;;;;;36.21;25.82;98081.84;5088666;28;19976;-88
2023/07/05 05:19:41;;;;;;;;;;;;;;;36.79;24.20;98084.97;5109665;28;19964;-88
2023/07/05 05:22:09;;;;;;;;;;;;;;;37.17;24.23;98082.09;5092255;28;20414;-88
2023/07/05 05:24:35;;;;;;;;;;;;;;;37.37;25.37;98084.66;5102888;28;19923;-88
2023/07/05 05:27:01;;;;;;;;;;;;;;;37.43;24.30;98092.47;5090121;28;20364;-88
2023/07/05 05:29:27;;;;;;;;;;;;;;;37.30;24.94;98084.38;5102653;28;19924;-89
2023/07/05 05:31:53;;;;;;;;;;;;;;;37.09;23.93;98083.94;5114099;28;20508;-89
2023/07/05 05:34:19;;;;;;;;;;;;;;;37.30;25.16;98079.44;5113224;28;19939;-88
2023/07/05 05:36:45;;;;;;;;;;;;;;;37.49;24.05;98084.63;5098610;28;20006;-89
2023/07/05 05:39:11;;;;;;;;;;;;;;;37.88;24.73;98082.41;5097006;28;19920;-88
2023/07/05 05:41:37;;;;;;;;;;;;;;;38.23;24.29;98082.41;5102641;28;19924;-89
2023/07/05 05:44:03;;;;;;;;;;;;;;;38.19;24.05;98081.94;5073178;28;20268;-90
2023/07/05 05:46:29;;;;;;;;;;;;;;;38.62;23.52;98077.22;5073883;28;19920;-89
2023/07/05 05:48:55;;;;;;;;;;;;;;;38.82;22.60;98080.97;5074034;28;20364;-89
2023/07/05 05:51:21;;;;;;;;;;;;;;;39.09;24.07;98079.94;5091434;28;19930;-89
2023/07/05 05:53:47;;;;;;;;;;;;;;;38.94;23.39;98076.66;5104744;28;19920;-89
2023/07/05 05:56:13;;;;;;;;;;;;;;;38.53;23.53;98073.91;5080783;28;20333;-89
2023/07/05 05:58:39;;;;;;;;;;;;;;;37.87;23.54;98069.38;5065688;28;19920;-89
2023/07/05 06:01:06;;;;;;;;;;;;;;;37.92;24.97;98080.03;5076648;28;19963;-89
2023/07/05 06:03:32;;;;;;;;;;;;;;;38.24;23.41;98071.72;5096494;28;20430;-89
2023/07/05 06:05:58;;;;;;;;;;;;;;;38.23;22.88;98073.81;5084904;28;19924;-89
2023/07/05 06:08:24;;;;;;;;;;;;;;;37.79;23.10;98074.06;5079359;28;19924;-89
2023/07/05 06:10:57;;;;;;;;;;;;;;;37.88;23.75;98083.16;5073753;28;19986;-89
2023/07/05 06:13:24;;;;;;;;;;;;;;;38.08;23.36;98073.41;5094105;28;19920;-89
2023/07/05 06:15:54;;;;;;;;;;;;;;;37.97;23.50;98070.63;5093838;28;19926;-89
2023/07/05 06:18:20;;;;;;;;;;;;;;;38.41;22.91;98078.94;5093688;28;19969;-89
2023/07/05 06:20:46;;;;;;;;;;;;;;;38.78;22.83;98077.63;5093824;28;19916;-89
2023/07/05 06:23:12;;;;;;;;;;;;;;;38.65;22.18;98079.00;5093539;28;19916;-90
2023/07/05 06:25:38;;;;;;;;;;;;;;;38.52;23.04;98075.19;5097656;28;20394;-89
2023/07/05 06:28:04;;;;;;;;;;;;;;;38.54;23.75;98081.19;5098658;28;20287;-89
2023/07/05 06:30:30;;;;;;;;;;;;;;;38.52;22.07;98072.31;5093284;28;19922;-89
2023/07/05 06:32:56;;;;;;;;;;;;;;;38.92;22.21;98071.47;5093724;28;19916;-90
2023/07/05 06:35:22;;;;;;;;;;;;;;;39.19;21.81;98066.78;5093823;28;19920;-89
2023/07/05 06:37:49;;;;;;;;;;;;;;;39.23;22.51;98070.13;5105826;28;20377;-90
2023/07/05 06:40:15;;;;;;;;;;;;;;;39.48;21.57;98070.88;5114094;28;19920;-90
2023/07/05 06:42:41;;;;;;;;;;;;;;;39.66;21.61;98076.69;5113934;28;20014;-89
2023/07/05 06:45:08;;;;;;;;;;;;;;;39.11;22.55;98069.47;5113812;28;20378;-89
2023/07/05 06:47:34;;;;;;;;;;;;;;;39.02;22.79;98069.03;5105598;28;19916;-90
2023/07/05 06:50:00;;;;;;;;;;;;;;;39.08;22.71;98066.88;5092765;28;19916;-89
2023/07/05 06:52:26;;;;;;;;;;;;;;;39.56;22.31;98066.09;5099282;28;19920;-90
2023/07/05 06:54:52;;;;;;;;;;;;;;;39.39;23.05;98069.16;5113790;28;20018;-90
2023/07/05 06:57:18;;;;;;;;;;;;;;;39.89;21.63;98063.56;5113810;28;20016;-89
2023/07/05 06:59:45;;;;;;;;;;;;;;;40.30;20.81;98063.25;5104940;28;19944;-89
2023/07/05 07:02:11;;;;;;;;;;;;;;;40.32;20.84;98060.59;5094441;28;19927;-90
2023/07/05 07:04:37;;;;;;;;;;;;;;;39.56;21.39;98060.34;5081364;28;19916;-90
2023/07/05 07:07:03;;;;;;;;;;;;;;;39.26;23.36;98057.56;5085646;28;19920;-90
2023/07/05 07:09:29;;;;;;;;;;;;;;;39.16;21.52;98053.50;5073271;28;19971;-90
2023/07/05 07:11:55;;;;;;;;;;;;;;;38.93;22.80;98058.66;5073187;28;19928;-90
2023/07/05 07:14:21;;;;;;;;;;;;;;;39.72;22.60;98065.91;5073011;28;19939;-91
2023/07/05 07:16:47;;;;;;;;;;;;;;;39.80;21.33;98055.31;5073159;28;19917;-90
2023/07/05 07:19:13;;;;;;;;;;;;;;;39.52;23.29;98057.75;5072780;28;19916;-90
2023/07/05 07:21:39;;;;;;;;;;;;;;;39.63;22.02;98060.50;5098100;28;19973;-90
2023/07/05 07:24:05;;;;;;;;;;;;;;;39.64;22.40;98056.34;5093216;28;19920;-90
2023/07/05 07:26:31;;;;;;;;;;;;;;;39.60;22.08;98050.13;5074982;28;20018;-90
2023/07/05 07:28:57;;;;;;;;;;;;;;;39.99;22.05;98046.69;5103161;28;19916;-92
2023/07/05 07:31:28;;;;;;;;;;;;;;;40.20;22.64;98044.03;5074361;28;19927;-90
2023/07/05 07:33:54;;;;;;;;;;;;;;;39.67;22.26;98049.50;5093831;28;19920;-90
2023/07/05 07:36:22;;;;;;;;;;;;;;;39.88;20.80;98052.63;5093601;28;20426;-90
2023/07/05 07:38:48;;;;;;;;;;;;;;;39.16;19.98;98047.75;5096603;28;19912;-89
2023/07/05 07:41:21;;;;;;;;;;;;;;;39.01;21.09;98047.34;5096552;28;20410;-91
2023/07/05 07:43:49;;;;;;;;;;;;;;;38.92;20.33;98048.50;5091632;28;19962;-89
2023/07/05 07:46:16;;;;;;;;;;;;;;;39.78;20.46;98043.59;5096451;28;20396;-89
2023/07/05 07:48:42;;;;;;;;;;;;;;;40.10;20.39;98045.78;5096471;28;19916;-90
2023/07/05 07:51:09;;;;;;;;;;;;;;;40.42;18.18;98043.72;5096524;28;19974;-90
2023/07/05 07:53:35;;;;;;;;;;;;;;;40.69;18.31;98046.13;5096280;28;19920;-91
2023/07/05 07:56:08;;;;;;;;;;;;;;;40.93;17.51;98045.22;5096263;28;19962;-89
2023/07/05 07:58:34;;;;;;;;;;;;;;;40.96;18.70;98049.84;5096344;28;19943;-89
2023/07/05 08:01:09;;;;;;;;;;;;;;;40.58;19.20;98046.34;5096114;28;19932;-90
2023/07/05 08:03:35;;;;;;;;;;;;;;;39.90;18.91;98052.84;5058098;28;19921;-90
2023/07/05 08:06:01;;;;;;;;;;;;;;;39.48;18.51;98047.88;5075564;28;19923;-89
2023/07/05 08:08:27;;;;;;;;;;;;;;;39.54;19.05;98052.25;5074175;28;20400;-90
2023/07/05 08:10:53;;;;;;;;;;;;;;;39.60;18.46;98050.13;5075734;28;19921;-89
2023/07/05 08:13:19;;;;;;;;;;;;;;;38.96;20.08;98048.97;5088526;28;20045;-90
2023/07/05 08:15:45;;;;;;;;;;;;;;;39.32;19.81;98047.56;5099829;28;19969;-90
2023/07/05 08:18:11;;;;;;;;;;;;;;;39.84;19.04;98049.28;5113170;28;20020;-91
2023/07/05 08:20:37;;;;;;;;;;;;;;;40.39;19.74;98047.66;5116096;28;20286;-90
2023/07/05 08:23:05;;;;;;;;;;;;;;;40.49;19.38;98048.84;5116402;28;19963;-90
2023/07/05 08:25:33;;;;;;;;;;;;;;;40.49;19.04;98043.88;5116475;28;19912;-91
2023/07/05 08:28:00;;;;;;;;;;;;;;;40.53;18.68;98050.09;5114233;28;19920;-89
2023/07/05 08:30:26;;;;;;;;;;;;;;;40.79;18.89;98042.81;5093986;28;19923;-90
2023/07/05 08:32:53;;;;;;;;;;;;;;;39.71;21.62;98046.31;5095866;28;20294;-90
2023/07/05 08:35:19;;;;;;;;;;;;;;;39.97;19.74;98037.84;5100253;28;19927;-89
2023/07/05 08:37:48;;;;;;;;;;;;;;;40.16;18.76;98041.50;5109344;28;19924;-90
2023/07/05 08:40:15;;;;;;;;;;;;;;;40.72;18.15;98043.47;5099598;28;20018;-89
2023/07/05 08:42:53;;;;;;;;;;;;;;;40.92;17.56;98037.88;5114532;28;19931;-90
2023/07/05 08:45:28;;;;;;;;;;;;;;;41.13;17.29;98029.38;5115732;28;19941;-90
2023/07/05 08:47:57;;;;;;;;;;;;;;;41.14;19.29;98040.34;5096148;28;20023;-89
2023/07/05 08:50:29;;;;;;;;;;;;;;;41.45;17.87;98029.28;5098343;28;19926;-89
2023/07/05 08:53:01;;;;;;;;;;;;;;;40.67;18.92;98030.72;5115503;28;19920;-90
2023/07/05 08:55:32;;;;;;;;;;;;;;;39.71;20.13;98026.97;5113682;28;20280;-89
2023/07/05 08:57:58;;;;;;;;;;;;;;;40.26;18.73;98022.50;5087775;28;20331;-90
2023/07/05 09:00:26;;;;;;;;;;;;;;;40.50;18.20;98025.25;5088874;28;19916;-91
2023/07/05 09:02:52;;;;;;;;;;;;;;;40.68;19.84;98027.28;5094730;28;19998;-90
2023/07/05 09:05:28;;;;;;;;;;;;;;;40.75;18.88;98022.22;5079276;28;19942;-90
2023/07/05 09:07:57;;;;;;;;;;;;;;;40.59;19.27;98016.19;5074990;28;20264;-90
2023/07/05 09:10:34;;;;;;;;;;;;;;;40.52;19.26;98018.94;5074589;28;19971;-89
2023/07/05 09:13:16;;;;;;;;;;;;;;;41.05;18.71;98014.88;5074601;28;20027;-90
2023/07/05 09:15:45;;;;;;;;;;;;;;;41.10;17.42;98002.44;5089210;28;19923;-89
2023/07/05 09:18:19;;;;;;;;;;;;;;;41.33;17.92;98006.44;5101814;28;19974;-90
2023/07/05 09:20:55;;;;;;;;;;;;;;;41.49;17.53;98009.53;5086770;28;19927;-89
2023/07/05 09:23:40;;;;;;;;;;;;;;;41.47;17.81;98004.34;5089419;28;19951;-89
2023/07/05 09:26:29;;;;;;;;;;;;;;;40.59;19.61;98006.78;5074543;28;19913;-89
2023/07/05 09:28:58;;;;;;;;;;;;;;;40.40;20.81;98011.81;5077005;28;19924;-89
2023/07/05 09:31:24;;;;;;;;;;;;;;;40.56;20.79;98005.03;5077856;28;20418;-89
2023/07/05 09:33:58;;;;;;;;;;;;;;;40.18;19.07;97997.78;5087244;28;19928;-90
2023/07/05 09:36:26;;;;;;;;;;;;;;;39.57;20.27;97998.66;5088579;28;19967;-90
2023/07/05 09:39:02;;;;;;;;;;;;;;;39.76;20.23;97997.38;5083048;28;20426;-90
2023/07/05 09:41:35;;;;;;;;;;;;;;;39.38;20.71;97995.75;5077435;28;19952;-89
2023/07/05 09:44:01;;;;;;;;;;;;;;;38.99;21.28;97995.44;5094019;28;19916;-90
2023/07/05 09:46:30;;;;;;;;;;;;;;;38.87;21.15;97996.88;5093502;28;19920;-90
2023/07/05 09:48:56;;;;;;;;;;;;;;;39.68;20.98;97987.00;5094376;28;19916;-90
2023/07/05 09:51:22;;;;;;;;;;;;;;;39.30;20.07;97995.59;5102275;28;19966;-91
2023/07/05 09:54:03;;;;;;;;;;;;;;;40.28;19.90;97987.44;5074941;28;19969;-91
2023/07/05 09:56:29;;;;;;;;;;;;;;;39.61;22.57;97982.66;5094131;28;20006;-90
2023/07/05 09:59:04;;;;;;;;;;;;;;;39.70;22.38;97979.41;5075815;28;19920;-90
2023/07/05 10:01:31;;;;;;;;;;;;;;;39.66;19.58;97983.91;5093740;28;20375;-91
2023/07/05 10:04:00;;;;;;;;;;;;;;;40.21;21.58;97985.19;5093952;28;19969;-91
2023/07/05 10:06:27;;;;;;;;;;;;;;;39.45;20.54;97974.25;5102099;28;19923;-89
2023/07/05 10:08:54;;;;;;;;;;;;;;;38.72;20.64;97976.44;5114431;28;20397;-87
2023/07/05 10:11:22;;;;;;;;;;;;;;;38.72;22.41;97977.97;5107750;28;19924;-87
2023/07/05 10:14:03;;;;;;;;;;;;;;;39.19;20.97;97978.50;5099161;28;19965;-86
2023/07/05 10:16:48;;;;;;;;;;;;;;;39.94;20.35;97970.66;5113920;28;20285;-87
2023/07/05 10:19:24;;;;;;;;;;;;;;;40.34;19.07;97967.94;5114409;28;19916;-86
2023/07/05 10:22:13;;;;;;;;;;;;;;;39.08;20.57;97975.75;5095349;28;20348;-86
2023/07/05 10:24:43;;;;;;;;;;;;;;;38.84;19.85;97970.00;5065291;28;19917;-88
2023/07/05 10:27:15;;;;;;;;;;;;;;;39.08;20.15;97972.09;5091657;28;20022;-87
2023/07/05 10:29:41;;;;;;;;;;;;;;;40.27;19.40;97963.63;5092315;28;19924;-87
2023/07/05 10:32:15;;;;;;;;;;;;;;;41.26;18.71;97969.66;5093268;28;20003;-88
2023/07/05 10:34:43;;;;;;;;;;;;;;;41.49;17.41;97966.28;5093779;28;19963;-84
2023/07/05 10:37:25;;;;;;;;;;;;;;;41.46;19.33;97959.53;5073227;28;19924;-85
2023/07/05 10:39:51;;;;;;;;;;;;;;;41.52;17.90;97959.41;5073300;28;20410;-85
2023/07/05 10:42:17;;;;;;;;;;;;;;;41.75;18.63;97960.47;5073774;28;19924;-86
2023/07/05 10:44:43;;;;;;;;;;;;;;;42.30;18.41;97956.25;5082154;28;19920;-85
2023/07/05 10:47:11;;;;;;;;;;;;;;;41.53;17.21;97960.94;5073323;28;19920;-85
2023/07/05 10:49:38;;;;;;;;;;;;;;;41.40;17.83;97961.78;5075779;28;19920;-85
2023/07/05 10:52:05;;;;;;;;;;;;;;;41.96;16.83;97964.97;5076238;28;19927;-86
2023/07/05 10:54:49;;;;;;;;;;;;;;;41.61;20.21;97961.81;5073424;28;19970;-86
2023/07/05 10:57:19;;;;;;;;;;;;;;;42.18;16.28;97943.44;5073050;28;19966;-85
2023/07/05 10:59:50;;;;;;;;;;;;;;;41.92;17.56;97940.66;5072974;28;19920;-85
2023/07/05 11:02:21;;;;;;;;;;;;;;;40.76;17.34;97946.00;5089293;28;19920;-85
2023/07/05 11:04:49;;;;;;;;;;;;;;;40.15;17.85;97944.22;5093179;28;19927;-84
2023/07/05 11:07:17;;;;;;;;;;;;;;;40.09;18.25;97934.91;5097283;28;19920;-85
2023/07/05 11:09:43;;;;;;;;;;;;;;;40.70;18.32;97934.63;5097273;28;19916;-85
2023/07/05 11:12:23;;;;;;;;;;;;;;;41.62;17.89;97937.41;5097618;28;19931;-87
2023/07/05 11:14:50;;;;;;;;;;;;;;;42.21;15.73;97925.00;5088340;28;19927;-87
2023/07/05 11:17:36;;;;;;;;;;;;;;;42.31;17.53;97923.16;5109141;28;19927;-87
2023/07/05 11:20:22;;;;;;;;;;;;;;;41.85;16.33;97921.16;5098170;28;19970;-88
2023/07/05 11:22:48;;;;;;;;;;;;;;;42.05;19.89;97919.63;5076595;28;20009;-86
2023/07/05 11:25:18;;;;;;;;;;;;;;;41.11;16.70;97914.66;5082121;28;19921;-88
2023/07/05 11:27:47;;;;;;;;;;;;;;;39.67;17.45;97919.34;5099021;28;19922;-90
2023/07/05 11:30:31;;;;;;;;;;;;;;;40.38;17.90;97911.63;5097183;28;19923;-90
2023/07/05 11:33:06;;;;;;;;;;;;;;;40.53;17.45;97914.00;5096685;28;19920;-90
2023/07/05 11:35:44;;;;;;;;;;;;;;;40.10;18.18;97916.34;5092073;28;20371;-88
2023/07/05 11:38:30;;;;;;;;;;;;;;;38.50;19.99;97908.53;5114315;28;19926;-88
2023/07/05 11:40:57;;;;;;;;;;;;;;;40.34;18.57;97908.31;5100324;28;20291;-88
2023/07/05 11:43:24;;;;;;;;;;;;;;;40.79;17.72;97899.63;5113727;28;19919;-88
2023/07/05 11:45:50;;;;;;;;;;;;;;;39.02;19.59;97896.72;5117102;28;20003;-89
2023/07/05 11:48:35;;;;;;;;;;;;;;;39.12;19.39;97897.88;5117135;28;19915;-90
2023/07/05 11:51:01;;;;;;;;;;;;;;;40.14;18.96;97897.44;5116884;28;20010;-90
2023/07/05 11:53:31;;;;;;;;;;;;;;;41.27;18.77;97889.72;5114449;28;20011;-87
2023/07/05 11:55:58;;;;;;;;;;;;;;;42.47;16.44;97900.97;5094963;28;19916;-87
2023/07/05 11:58:28;;;;;;;;;;;;;;;42.19;16.43;97884.38;5096454;28;19948;-87
2023/07/05 12:00:58;;;;;;;;;;;;;;;42.05;17.83;97888.66;5094259;28;19999;-88
2023/07/05 12:03:30;;;;;;;;;;;;;;;40.92;17.75;97882.34;5095193;28;19916;-87
2023/07/05 12:06:04;;;;;;;;;;;;;;;41.29;17.61;97881.28;5096277;28;19999;-87
2023/07/05 12:08:39;;;;;;;;;;;;;;;40.66;17.55;97883.09;5078268;28;19916;-87
2023/07/05 12:11:05;;;;;;;;;;;;;;;40.44;19.18;97886.44;5099417;28;19930;-88
2023/07/05 12:13:32;;;;;;;;;;;;;;;40.94;17.17;97888.31;5106162;28;20003;-87
2023/07/05 12:15:58;;;;;;;;;;;;;;;40.96;16.96;97876.25;5106932;28;19927;-88
2023/07/05 12:18:27;;;;;;;;;;;;;;;40.87;16.72;97871.69;5113126;28;19955;-87
2023/07/05 12:20:54;;;;;;;;;;;;;;;40.96;19.30;97864.72;5116652;28;20354;-87
2023/07/05 12:23:21;;;;;;;;;;;;;;;40.88;19.05;97855.97;5115123;28;20379;-87
2023/07/05 12:25:50;;;;;;;;;;;;;;;40.51;18.16;97856.19;5113041;28;19916;-87
2023/07/05 12:28:17;;;;;;;;;;;;;;;40.66;18.77;97856.41;5101441;28;20409;-87
2023/07/05 12:30:44;;;;;;;;;;;;;;;40.68;17.65;97854.53;5096280;28;19927;-87
2023/07/05 12:33:24;;;;;;;;;;;;;;;40.78;19.17;97846.22;5080471;28;20435;-88
2023/07/05 12:36:07;;;;;;;;;;;;;;;40.91;19.71;97845.47;5101525;28;19963;-87
2023/07/05 12:38:33;;;;;;;;;;;;;;;40.99;18.74;97846.31;5116275;28;19927;-87
2023/07/05 12:41:01;;;;;;;;;;;;;;;40.81;18.25;97838.56;5115685;28;19916;-87
2023/07/05 12:43:28;;;;;;;;;;;;;;;40.12;17.89;97836.75;5115928;28;20333;-87
2023/07/05 12:46:06;;;;;;;;;;;;;;;40.51;19.35;97842.59;5094262;28;20299;-87
2023/07/05 12:48:33;;;;;;;;;;;;;;;41.10;19.49;97825.91;5072703;28;19934;-88
2023/07/05 12:51:03;;;;;;;;;;;;;;;41.18;18.45;97827.53;5084770;28;19934;-88
2023/07/05 12:53:29;;;;;;;;;;;;;;;41.21;18.74;97834.31;5081909;28;19928;-88
2023/07/05 12:55:58;;;;;;;;;;;;;;;41.14;17.60;97818.47;5079843;28;19928;-88